createdAt,value
2023-05-09T00:00:06.455Z,0.82
2023-05-09T00:01:13.737Z,0.68
2023-05-09T00:03:21.335Z,0.85
2023-05-09T00:04:25.416Z,0.73
2023-05-09T00:05:28.477Z,0.82
2023-05-09T00:06:32.479Z,0.85
2023-05-09T00:07:35.515Z,1.00
2023-05-09T00:08:38.845Z,0.88
2023-05-09T00:09:41.760Z,1.40
2023-05-09T00:10:44.864Z,0.93
2023-05-09T00:11:47.846Z,0.80
2023-05-09T00:12:51.649Z,0.38
2023-05-09T00:13:54.726Z,1.27
2023-05-09T00:14:58.164Z,1.23
2023-05-09T00:16:01.372Z,1.30
2023-05-09T00:17:04.727Z,0.68
2023-05-09T00:18:07.990Z,1.27
2023-05-09T00:19:11.485Z,0.90
2023-05-09T00:20:14.876Z,1.20
2023-05-09T00:21:17.975Z,1.15
2023-05-09T00:22:21.811Z,0.85
2023-05-09T00:23:24.938Z,1.05
2023-05-09T00:24:27.886Z,0.88
2023-05-09T00:25:30.950Z,0.70
2023-05-09T00:26:33.864Z,0.93
2023-05-09T00:27:37.138Z,1.05
2023-05-09T00:28:40.070Z,1.02
2023-05-09T00:29:43.812Z,1.05
2023-05-09T00:30:46.811Z,1.38
2023-05-09T00:31:49.918Z,0.85
2023-05-09T00:32:52.973Z,1.20
2023-05-09T00:33:56.128Z,1.13
2023-05-09T00:34:59.046Z,1.20
2023-05-09T00:36:02.282Z,0.88
2023-05-09T00:37:05.426Z,0.88
2023-05-09T00:38:08.612Z,1.13
2023-05-09T00:39:11.651Z,1.15
2023-05-09T00:40:14.911Z,0.90
2023-05-09T00:41:17.829Z,1.27
2023-05-09T00:42:20.882Z,1.27
2023-05-09T00:43:23.810Z,1.25
2023-05-09T00:44:26.867Z,1.13
2023-05-09T00:45:29.918Z,0.90
2023-05-09T00:46:33.535Z,0.73
2023-05-09T00:47:36.673Z,1.27
2023-05-09T00:48:40.195Z,1.27
2023-05-09T00:49:43.443Z,0.85
2023-05-09T00:50:47.367Z,1.02
2023-05-09T00:51:50.593Z,0.80
2023-05-09T00:52:53.876Z,1.58
2023-05-09T00:53:56.884Z,0.80
2023-05-09T00:55:01.075Z,0.80
2023-05-09T00:56:05.048Z,1.27
2023-05-09T00:57:08.571Z,0.70
2023-05-09T00:58:11.941Z,0.25
2023-05-09T00:59:16.976Z,1.15
2023-05-09T01:00:20.822Z,1.20
2023-05-09T01:01:24.395Z,0.93
2023-05-09T01:02:28.056Z,1.02
2023-05-09T01:03:32.380Z,0.90
2023-05-09T01:04:35.662Z,0.80
2023-05-09T01:06:07.315Z,1.67
2023-05-09T01:07:19.621Z,0.88
2023-05-09T01:08:42.797Z,0.85
2023-05-09T01:10:00.051Z,1.15
2023-05-09T01:11:19.616Z,1.30
2023-05-09T01:12:25.601Z,0.93
2023-05-09T01:13:52.804Z,1.48
2023-05-09T01:15:04.865Z,1.05
2023-05-09T01:17:43.966Z,1.27
2023-05-09T01:18:54.711Z,1.00
2023-05-09T01:20:10.918Z,0.98
2023-05-09T01:21:20.871Z,1.38
2023-05-09T01:22:35.082Z,0.75
2023-05-09T01:24:26.585Z,1.17
2023-05-09T01:25:53.535Z,1.27
2023-05-09T01:27:27.387Z,0.77
2023-05-09T01:28:45.168Z,1.33
2023-05-09T01:29:52.025Z,0.98
2023-05-09T01:30:55.771Z,0.98
2023-05-09T01:32:01.652Z,1.20
2023-05-09T01:33:08.601Z,0.95
2023-05-09T01:34:14.114Z,1.42
2023-05-09T01:35:18.127Z,1.20
2023-05-09T01:36:22.548Z,1.40
2023-05-09T01:37:32.101Z,2.05
2023-05-09T01:38:39.051Z,1.05
2023-05-09T01:39:48.240Z,1.08
2023-05-09T01:40:55.085Z,0.52
2023-05-09T01:42:02.432Z,1.08
2023-05-09T01:44:12.625Z,1.02
2023-05-09T01:45:17.303Z,1.25
2023-05-09T01:46:22.174Z,0.85
2023-05-09T01:47:26.503Z,1.35
2023-05-09T01:48:31.806Z,1.10
2023-05-09T01:49:37.899Z,1.00
2023-05-09T01:50:42.005Z,0.85
2023-05-09T01:51:46.104Z,1.23
2023-05-09T01:52:51.769Z,0.98
2023-05-09T01:53:57.013Z,1.70
2023-05-09T01:55:02.668Z,0.35
2023-05-09T01:56:08.628Z,1.33
2023-05-09T01:57:12.566Z,1.27
2023-05-09T01:58:16.998Z,1.00
2023-05-09T01:59:20.914Z,1.17
2023-05-09T02:00:32.588Z,0.98
2023-05-09T02:01:37.423Z,0.95
2023-05-09T02:02:41.097Z,1.23
2023-05-09T02:03:47.427Z,0.80
2023-05-09T02:04:51.313Z,1.23
2023-05-09T02:05:56.966Z,0.90
2023-05-09T02:07:01.501Z,1.25
2023-05-09T02:08:04.741Z,0.38
2023-05-09T02:09:10.301Z,0.77
2023-05-09T02:10:15.713Z,1.15
2023-05-09T02:11:19.156Z,1.13
2023-05-09T02:12:25.424Z,1.13
2023-05-09T02:13:28.956Z,1.10
2023-05-09T02:14:32.251Z,0.75
2023-05-09T02:15:36.181Z,1.15
2023-05-09T02:16:39.833Z,0.20
2023-05-09T02:17:43.190Z,1.35
2023-05-09T02:18:47.335Z,1.05
2023-05-09T02:19:50.703Z,0.85
2023-05-09T02:20:53.796Z,0.88
2023-05-09T02:21:57.069Z,0.90
2023-05-09T02:23:00.137Z,1.10
2023-05-09T02:24:03.650Z,0.95
2023-05-09T02:25:07.873Z,1.00
2023-05-09T02:26:12.129Z,1.60
2023-05-09T02:27:15.864Z,1.08
2023-05-09T02:28:19.784Z,1.23
2023-05-09T02:29:29.576Z,0.95
2023-05-09T02:30:39.213Z,1.13
2023-05-09T02:31:43.932Z,0.95
2023-05-09T02:32:49.247Z,1.35
2023-05-09T02:33:53.836Z,1.38
2023-05-09T02:34:59.253Z,0.32
2023-05-09T02:36:02.849Z,1.20
2023-05-09T02:37:07.415Z,1.13
2023-05-09T02:38:12.617Z,1.02
2023-05-09T02:39:16.333Z,1.13
2023-05-09T02:40:21.165Z,1.00
2023-05-09T02:41:28.684Z,1.00
2023-05-09T02:42:31.597Z,1.02
2023-05-09T02:43:34.834Z,1.10
2023-05-09T02:44:39.103Z,0.77
2023-05-09T02:45:42.385Z,1.08
2023-05-09T02:46:45.439Z,0.90
2023-05-09T02:47:48.641Z,1.05
2023-05-09T02:48:52.372Z,1.45
2023-05-09T02:49:55.470Z,1.08
2023-05-09T02:50:58.624Z,1.10
2023-05-09T02:52:01.799Z,1.05
2023-05-09T02:53:04.827Z,1.10
2023-05-09T02:54:09.121Z,1.02
2023-05-09T02:55:12.510Z,0.90
2023-05-09T02:56:17.675Z,0.90
2023-05-09T02:57:21.343Z,1.15
2023-05-09T02:58:24.913Z,1.27
2023-05-09T02:59:28.066Z,1.15
2023-05-09T03:00:32.155Z,1.52
2023-05-09T03:01:35.235Z,1.15
2023-05-09T03:02:39.539Z,0.90
2023-05-09T03:03:46.929Z,0.82
2023-05-09T03:04:50.994Z,0.88
2023-05-09T03:05:53.949Z,0.98
2023-05-09T03:06:57.212Z,1.23
2023-05-09T03:08:02.920Z,0.77
2023-05-09T03:09:07.380Z,0.63
2023-05-09T03:10:13.501Z,0.93
2023-05-09T03:11:18.325Z,0.80
2023-05-09T03:12:23.674Z,0.45
2023-05-09T03:13:29.508Z,1.20
2023-05-09T03:14:33.965Z,1.13
2023-05-09T03:15:38.032Z,0.70
2023-05-09T03:16:42.094Z,1.20
2023-05-09T03:17:54.641Z,0.40
2023-05-09T03:18:58.517Z,1.13
2023-05-09T03:20:04.037Z,1.10
2023-05-09T03:21:07.546Z,1.17
2023-05-09T03:22:12.622Z,1.05
2023-05-09T03:23:21.322Z,0.80
2023-05-09T03:24:31.103Z,1.13
2023-05-09T03:25:34.039Z,1.17
2023-05-09T03:26:37.222Z,1.10
2023-05-09T03:27:40.325Z,1.15
2023-05-09T03:28:47.427Z,1.27
2023-05-09T03:29:50.633Z,0.95
2023-05-09T03:30:55.348Z,1.10
2023-05-09T03:32:01.404Z,0.88
2023-05-09T03:33:05.174Z,1.10
2023-05-09T03:34:13.240Z,0.68
2023-05-09T03:35:16.916Z,1.13
2023-05-09T03:36:20.710Z,1.00
2023-05-09T03:37:26.247Z,0.77
2023-05-09T03:38:30.057Z,1.40
2023-05-09T03:39:33.224Z,1.25
2023-05-09T03:40:36.184Z,1.00
2023-05-09T03:42:48.543Z,0.77
2023-05-09T03:43:51.606Z,0.30
2023-05-09T03:44:55.175Z,1.45
2023-05-09T03:45:58.505Z,1.10
2023-05-09T03:47:02.701Z,0.93
2023-05-09T03:48:12.392Z,0.20
2023-05-09T03:49:21.122Z,1.10
2023-05-09T03:50:27.607Z,0.90
2023-05-09T03:51:33.294Z,0.82
2023-05-09T03:52:38.148Z,0.10
2023-05-09T03:53:42.333Z,0.82
2023-05-09T03:54:45.994Z,1.05
2023-05-09T03:55:49.176Z,1.08
2023-05-09T03:56:52.679Z,0.98
2023-05-09T03:57:55.791Z,1.02
2023-05-09T03:59:00.122Z,1.50
2023-05-09T04:00:06.435Z,0.82
2023-05-09T04:01:18.080Z,0.80
2023-05-09T04:02:22.288Z,0.30
2023-05-09T04:03:25.619Z,0.65
2023-05-09T04:04:30.297Z,1.13
2023-05-09T04:05:36.331Z,0.30
2023-05-09T04:07:45.863Z,0.90
2023-05-09T04:08:49.211Z,0.65
2023-05-09T04:09:52.534Z,0.75
2023-05-09T04:10:55.916Z,0.77
2023-05-09T04:12:00.170Z,0.88
2023-05-09T04:13:03.533Z,0.85
2023-05-09T04:14:07.435Z,1.30
2023-05-09T04:15:12.549Z,1.33
2023-05-09T04:16:18.714Z,1.00
2023-05-09T04:17:22.077Z,0.90
2023-05-09T04:18:25.081Z,0.70
2023-05-09T04:19:28.198Z,0.65
2023-05-09T04:20:31.562Z,0.85
2023-05-09T04:21:34.763Z,1.38
2023-05-09T04:22:39.875Z,0.82
2023-05-09T04:23:43.982Z,0.95
2023-05-09T04:24:48.237Z,1.23
2023-05-09T04:25:52.321Z,0.75
2023-05-09T04:26:55.376Z,0.90
2023-05-09T04:28:00.842Z,0.88
2023-05-09T04:29:04.368Z,0.68
2023-05-09T04:30:07.966Z,0.95
2023-05-09T04:31:13.136Z,0.98
2023-05-09T04:32:16.575Z,0.90
2023-05-09T04:33:19.874Z,1.00
2023-05-09T04:34:22.996Z,1.27
2023-05-09T04:35:26.945Z,1.10
2023-05-09T04:36:31.620Z,1.33
2023-05-09T04:37:34.984Z,0.75
2023-05-09T04:38:38.904Z,0.75
2023-05-09T04:39:45.880Z,0.93
2023-05-09T04:40:57.071Z,0.80
2023-05-09T04:42:00.117Z,0.98
2023-05-09T04:43:03.525Z,0.20
2023-05-09T04:44:07.075Z,0.70
2023-05-09T04:45:11.946Z,1.02
2023-05-09T04:46:15.381Z,0.95
2023-05-09T04:47:18.696Z,0.90
2023-05-09T04:48:21.672Z,0.73
2023-05-09T04:49:26.125Z,0.22
2023-05-09T04:50:29.439Z,0.90
2023-05-09T04:51:32.669Z,0.73
2023-05-09T04:52:36.148Z,0.68
2023-05-09T04:53:39.470Z,1.08
2023-05-09T04:54:42.967Z,0.85
2023-05-09T04:55:46.831Z,0.88
2023-05-09T04:56:50.790Z,1.60
2023-05-09T04:57:54.302Z,0.80
2023-05-09T04:58:57.463Z,0.77
2023-05-09T05:00:00.597Z,0.98
2023-05-09T05:01:03.605Z,0.93
2023-05-09T05:02:06.802Z,1.15
2023-05-09T05:03:10.218Z,0.10
2023-05-09T05:04:13.372Z,1.00
2023-05-09T05:05:16.823Z,0.22
2023-05-09T05:06:20.327Z,1.13
2023-05-09T05:07:23.304Z,1.92
2023-05-09T05:08:26.441Z,1.10
2023-05-09T05:09:29.832Z,0.73
2023-05-09T05:10:33.058Z,1.75
2023-05-09T05:11:53.197Z,1.00
2023-05-09T05:13:02.236Z,0.88
2023-05-09T05:14:05.299Z,1.23
2023-05-09T05:15:09.212Z,0.80
2023-05-09T05:16:12.455Z,1.48
2023-05-09T05:17:17.627Z,0.90
2023-05-09T05:18:21.981Z,0.57
2023-05-09T05:19:25.084Z,0.88
2023-05-09T05:20:28.211Z,0.70
2023-05-09T05:21:33.029Z,1.92
2023-05-09T05:22:36.767Z,0.98
2023-05-09T05:23:40.072Z,0.60
2023-05-09T05:24:43.049Z,0.90
2023-05-09T05:25:46.596Z,1.08
2023-05-09T05:26:50.528Z,0.52
2023-05-09T05:27:53.722Z,0.88
2023-05-09T05:28:57.465Z,0.80
2023-05-09T05:30:01.674Z,1.15
2023-05-09T05:31:04.966Z,0.75
2023-05-09T05:32:08.870Z,0.98
2023-05-09T05:33:12.051Z,0.85
2023-05-09T05:34:16.880Z,0.85
2023-05-09T05:35:24.968Z,0.65
2023-05-09T05:36:29.470Z,1.13
2023-05-09T05:37:32.830Z,0.90
2023-05-09T05:38:35.998Z,0.95
2023-05-09T05:39:39.409Z,0.70
2023-05-09T05:40:42.438Z,0.88
2023-05-09T05:41:45.465Z,1.15
2023-05-09T05:42:48.883Z,1.02
2023-05-09T05:43:54.108Z,0.98
2023-05-09T05:44:57.786Z,0.68
2023-05-09T05:46:01.392Z,0.82
2023-05-09T05:47:05.812Z,1.33
2023-05-09T05:48:08.836Z,0.90
2023-05-09T05:49:12.002Z,1.25
2023-05-09T05:50:15.047Z,0.75
2023-05-09T05:51:18.690Z,1.40
2023-05-09T05:52:22.441Z,1.13
2023-05-09T05:53:25.718Z,1.00
2023-05-09T05:54:28.667Z,0.90
2023-05-09T05:55:31.871Z,0.25
2023-05-09T05:56:38.027Z,0.70
2023-05-09T05:57:41.272Z,0.82
2023-05-09T05:58:46.230Z,1.00
2023-05-09T05:59:50.941Z,0.10
2023-05-09T06:00:53.999Z,0.90
2023-05-09T06:01:57.206Z,1.00
2023-05-09T06:03:00.429Z,1.17
2023-05-09T06:04:23.892Z,1.15
2023-05-09T06:05:26.898Z,1.10
2023-05-09T06:06:30.042Z,1.00
2023-05-09T06:07:32.971Z,0.68
2023-05-09T06:08:35.988Z,0.90
2023-05-09T06:09:38.932Z,0.88
2023-05-09T06:10:42.403Z,1.17
2023-05-09T06:11:45.359Z,1.52
2023-05-09T06:12:48.428Z,0.70
2023-05-09T06:13:51.422Z,1.13
2023-05-09T06:14:54.519Z,0.80
2023-05-09T06:16:07.716Z,1.08
2023-05-09T06:17:18.883Z,1.23
2023-05-09T06:18:22.170Z,1.08
2023-05-09T06:19:25.285Z,0.93
2023-05-09T06:20:28.425Z,0.77
2023-05-09T06:21:31.673Z,0.93
2023-05-09T06:22:34.679Z,1.10
2023-05-09T06:23:40.495Z,1.27
2023-05-09T06:24:47.659Z,1.17
2023-05-09T06:25:50.884Z,1.08
2023-05-09T06:26:53.822Z,1.17
2023-05-09T06:27:56.929Z,0.13
2023-05-09T06:29:00.003Z,0.38
2023-05-09T06:30:11.194Z,0.93
2023-05-09T06:31:21.867Z,1.08
2023-05-09T06:32:25.923Z,0.90
2023-05-09T06:33:28.931Z,0.20
2023-05-09T06:34:32.054Z,1.35
2023-05-09T06:35:35.134Z,0.90
2023-05-09T06:36:38.483Z,0.88
2023-05-09T06:37:41.619Z,1.35
2023-05-09T06:38:44.700Z,1.55
2023-05-09T06:39:47.799Z,1.05
2023-05-09T06:40:51.039Z,0.30
2023-05-09T06:41:53.977Z,1.20
2023-05-09T06:43:06.715Z,0.30
2023-05-09T06:44:09.716Z,1.15
2023-05-09T06:45:13.471Z,0.10
2023-05-09T06:46:16.939Z,0.75
2023-05-09T06:47:20.064Z,0.77
2023-05-09T06:48:24.251Z,0.75
2023-05-09T06:49:27.620Z,0.30
2023-05-09T06:50:32.780Z,1.05
2023-05-09T06:51:36.817Z,0.75
2023-05-09T06:52:39.920Z,0.17
2023-05-09T06:53:43.066Z,0.98
2023-05-09T06:54:46.057Z,0.32
2023-05-09T06:55:49.156Z,1.40
2023-05-09T06:56:52.327Z,1.83
2023-05-09T06:57:55.601Z,0.57
2023-05-09T06:58:58.624Z,1.30
2023-05-09T07:00:01.838Z,1.65
2023-05-09T07:01:05.024Z,2.22
2023-05-09T07:02:09.018Z,1.20
2023-05-09T07:03:12.279Z,0.95
2023-05-09T07:04:15.506Z,1.85
2023-05-09T07:05:18.921Z,1.25
2023-05-09T07:06:22.953Z,1.52
2023-05-09T07:07:26.077Z,1.25
2023-05-09T07:08:29.232Z,1.75
2023-05-09T07:09:32.199Z,1.83
2023-05-09T07:10:36.294Z,2.03
2023-05-09T07:11:39.293Z,1.65
2023-05-09T07:12:42.466Z,2.08
2023-05-09T07:13:45.532Z,2.33
2023-05-09T07:14:48.643Z,1.50
2023-05-09T07:15:51.672Z,2.38
2023-05-09T07:17:09.838Z,2.13
2023-05-09T07:18:20.998Z,2.35
2023-05-09T07:19:24.126Z,3.05
2023-05-09T07:20:27.105Z,3.53
2023-05-09T07:21:30.288Z,3.88
2023-05-09T07:22:37.426Z,2.83
2023-05-09T07:23:45.652Z,3.00
2023-05-09T07:24:48.761Z,3.60
2023-05-09T07:25:59.446Z,2.88
2023-05-09T07:27:06.128Z,2.75
2023-05-09T07:28:12.999Z,3.20
2023-05-09T07:29:17.076Z,3.40
2023-05-09T07:30:20.164Z,3.65
2023-05-09T07:31:23.184Z,2.92
2023-05-09T07:32:28.973Z,2.47
2023-05-09T07:33:32.086Z,3.33
2023-05-09T07:34:36.020Z,4.10
2023-05-09T07:35:39.229Z,3.63
2023-05-09T07:36:42.550Z,3.53
2023-05-09T07:37:45.551Z,2.60
2023-05-09T07:38:50.752Z,3.22
2023-05-09T07:39:54.694Z,3.75
2023-05-09T07:40:57.728Z,4.13
2023-05-09T07:42:00.748Z,4.25
2023-05-09T07:43:03.900Z,4.20
2023-05-09T07:44:06.852Z,3.70
2023-05-09T07:45:11.117Z,3.88
2023-05-09T07:46:14.142Z,4.00
2023-05-09T07:47:17.240Z,3.22
2023-05-09T07:48:20.617Z,4.53
2023-05-09T07:49:23.714Z,3.30
2023-05-09T07:50:26.801Z,4.80
2023-05-09T07:51:29.893Z,4.45
2023-05-09T07:52:32.957Z,4.75
2023-05-09T07:53:36.631Z,5.43
2023-05-09T07:54:39.675Z,5.28
2023-05-09T07:55:44.776Z,5.55
2023-05-09T07:56:47.761Z,5.25
2023-05-09T07:57:51.026Z,5.05
2023-05-09T07:58:55.607Z,4.80
2023-05-09T07:59:58.978Z,4.50
2023-05-09T08:01:01.984Z,5.22
2023-05-09T08:02:05.077Z,5.38
2023-05-09T08:03:08.452Z,6.07
2023-05-09T08:04:12.039Z,5.50
2023-05-09T08:05:15.676Z,4.35
2023-05-09T08:06:19.064Z,6.25
2023-05-09T08:07:22.086Z,6.20
2023-05-09T08:08:25.249Z,6.05
2023-05-09T08:09:28.252Z,5.70
2023-05-09T08:10:32.462Z,6.35
2023-05-09T08:11:36.209Z,6.00
2023-05-09T08:12:39.908Z,6.32
2023-05-09T08:13:42.987Z,6.35
2023-05-09T08:14:46.021Z,6.70
2023-05-09T08:15:49.580Z,6.30
2023-05-09T08:16:52.909Z,5.82
2023-05-09T08:17:56.063Z,6.50
2023-05-09T08:18:59.118Z,6.55
2023-05-09T08:20:02.270Z,4.50
2023-05-09T08:21:09.288Z,5.75
2023-05-09T08:22:18.748Z,6.78
2023-05-09T08:23:21.895Z,7.40
2023-05-09T08:24:24.906Z,7.32
2023-05-09T08:25:27.969Z,6.43
2023-05-09T08:26:30.931Z,6.07
2023-05-09T08:27:34.029Z,6.40
2023-05-09T08:28:36.977Z,7.15
2023-05-09T08:29:40.892Z,6.43
2023-05-09T08:30:43.921Z,6.68
2023-05-09T08:31:47.013Z,6.85
2023-05-09T08:32:50.041Z,6.07
2023-05-09T08:33:53.434Z,7.32
2023-05-09T08:34:56.362Z,7.05
2023-05-09T08:35:59.424Z,7.10
2023-05-09T08:37:03.221Z,7.13
2023-05-09T08:38:06.339Z,6.97
2023-05-09T08:39:10.258Z,6.82
2023-05-09T08:40:13.954Z,7.40
2023-05-09T08:41:17.248Z,6.03
2023-05-09T08:42:25.513Z,6.75
2023-05-09T08:43:29.982Z,5.25
2023-05-09T08:44:33.096Z,7.25
2023-05-09T08:45:40.181Z,7.13
2023-05-09T08:46:44.805Z,5.50
2023-05-09T08:47:47.954Z,7.28
2023-05-09T08:48:51.775Z,7.40
2023-05-09T08:49:55.149Z,7.60
2023-05-09T08:50:59.341Z,6.95
2023-05-09T08:52:02.655Z,6.63
2023-05-09T08:53:05.854Z,7.30
2023-05-09T08:54:09.188Z,7.18
2023-05-09T08:55:12.926Z,6.82
2023-05-09T08:56:15.938Z,7.18
2023-05-09T08:57:19.220Z,7.95
2023-05-09T08:58:22.911Z,7.60
2023-05-09T08:59:27.382Z,7.07
2023-05-09T09:00:32.356Z,8.32
2023-05-09T09:01:38.223Z,7.75
2023-05-09T09:02:42.620Z,5.97
2023-05-09T09:03:49.681Z,6.97
2023-05-09T09:04:54.049Z,7.70
2023-05-09T09:05:58.483Z,7.05
2023-05-09T09:07:04.595Z,7.30
2023-05-09T09:08:08.877Z,7.82
2023-05-09T09:09:14.018Z,7.68
2023-05-09T09:10:17.716Z,7.22
2023-05-09T09:11:22.715Z,5.28
2023-05-09T09:12:26.594Z,7.63
2023-05-09T09:13:30.431Z,7.18
2023-05-09T09:14:38.599Z,6.93
2023-05-09T09:15:45.555Z,6.97
2023-05-09T09:16:50.283Z,7.75
2023-05-09T09:17:56.924Z,16.13
2023-05-09T09:19:00.981Z,12.63
2023-05-09T09:20:09.263Z,10.63
2023-05-09T09:21:18.677Z,10.20
2023-05-09T09:22:22.501Z,11.35
2023-05-09T09:23:27.504Z,12.13
2023-05-09T09:24:32.487Z,8.50
2023-05-09T09:25:35.549Z,11.30
2023-05-09T09:26:46.913Z,11.63
2023-05-09T09:27:50.023Z,10.73
2023-05-09T09:28:54.533Z,10.88
2023-05-09T09:30:07.169Z,9.27
2023-05-09T09:31:28.660Z,10.95
2023-05-09T09:32:35.118Z,10.60
2023-05-09T09:33:40.990Z,10.23
2023-05-09T09:34:44.092Z,9.63
2023-05-09T09:35:48.756Z,10.05
2023-05-09T09:36:51.845Z,10.30
2023-05-09T09:38:00.191Z,10.27
2023-05-09T09:39:05.648Z,10.27
2023-05-09T09:40:10.348Z,10.27
2023-05-09T09:41:13.921Z,9.15
2023-05-09T09:42:16.896Z,11.70
2023-05-09T09:43:20.070Z,10.18
2023-05-09T09:44:23.691Z,10.70
2023-05-09T09:45:28.068Z,9.63
2023-05-09T09:46:48.516Z,10.57
2023-05-09T09:47:51.649Z,9.32
2023-05-09T09:48:57.843Z,10.45
2023-05-09T09:50:10.658Z,9.57
2023-05-09T09:51:13.653Z,9.77
2023-05-09T09:52:25.364Z,11.52
2023-05-09T09:53:30.959Z,10.15
2023-05-09T09:54:34.230Z,10.40
2023-05-09T09:55:37.241Z,9.90
2023-05-09T09:56:45.419Z,10.20
2023-05-09T09:57:49.082Z,9.55
2023-05-09T09:59:09.931Z,9.82
2023-05-09T10:00:18.761Z,10.25
2023-05-09T10:01:22.037Z,9.43
2023-05-09T10:02:25.194Z,9.50
2023-05-09T10:03:39.485Z,9.63
2023-05-09T10:04:43.554Z,9.63
2023-05-09T10:05:46.993Z,9.68
2023-05-09T10:07:01.064Z,9.10
2023-05-09T10:08:05.482Z,9.27
2023-05-09T10:09:08.929Z,8.48
2023-05-09T10:10:12.480Z,8.70
2023-05-09T10:11:16.040Z,9.05
2023-05-09T10:12:21.019Z,9.40
2023-05-09T10:13:25.332Z,9.38
2023-05-09T10:14:32.443Z,9.23
2023-05-09T10:15:49.345Z,9.55
2023-05-09T10:16:57.766Z,9.35
2023-05-09T10:18:04.554Z,9.38
2023-05-09T10:19:07.995Z,9.32
2023-05-09T10:20:14.471Z,9.70
2023-05-09T10:21:17.683Z,9.65
2023-05-09T10:22:21.371Z,9.25
2023-05-09T10:23:25.680Z,9.60
2023-05-09T10:24:35.695Z,9.07
2023-05-09T10:25:40.922Z,8.75
2023-05-09T10:26:49.999Z,8.68
2023-05-09T10:27:56.340Z,9.65
2023-05-09T10:29:07.600Z,7.05
2023-05-09T10:30:23.886Z,8.73
2023-05-09T10:31:28.512Z,8.07
2023-05-09T10:32:53.725Z,8.82
2023-05-09T10:35:06.059Z,8.23
2023-05-09T10:36:10.710Z,9.10
2023-05-09T10:37:14.637Z,6.97
2023-05-09T10:38:18.937Z,9.43
2023-05-09T10:39:22.809Z,8.43
2023-05-09T10:40:27.948Z,8.88
2023-05-09T10:41:34.065Z,8.73
2023-05-09T10:42:37.651Z,8.32
2023-05-09T10:43:40.736Z,7.93
2023-05-09T10:44:43.974Z,7.55
2023-05-09T10:45:47.458Z,8.38
2023-05-09T10:46:50.841Z,7.55
2023-05-09T10:47:56.734Z,7.72
2023-05-09T10:49:00.116Z,7.70
2023-05-09T10:50:11.202Z,6.95
2023-05-09T10:51:14.481Z,7.45
2023-05-09T10:52:17.595Z,8.63
2023-05-09T10:53:24.392Z,7.45
2023-05-09T10:54:34.382Z,7.63
2023-05-09T10:55:51.821Z,8.25
2023-05-09T10:56:56.365Z,7.45
2023-05-09T10:58:18.649Z,6.97
2023-05-09T10:59:38.040Z,5.25
2023-05-09T11:00:42.775Z,7.05
2023-05-09T11:01:46.890Z,7.78
2023-05-09T11:03:16.906Z,7.20
2023-05-09T11:04:28.617Z,7.18
2023-05-09T11:05:41.288Z,6.82
2023-05-09T11:06:51.661Z,7.18
2023-05-09T11:08:29.741Z,7.60
2023-05-09T11:09:39.207Z,6.60
2023-05-09T11:10:43.256Z,7.65
2023-05-09T11:11:53.702Z,7.03
2023-05-09T11:13:01.032Z,7.63
2023-05-09T11:14:04.208Z,6.88
2023-05-09T11:15:09.279Z,7.22
2023-05-09T11:16:12.676Z,8.23
2023-05-09T11:17:22.085Z,6.03
2023-05-09T11:18:25.510Z,7.53
2023-05-09T11:19:37.110Z,6.18
2023-05-09T11:20:44.420Z,6.60
2023-05-09T11:22:11.305Z,6.88
2023-05-09T11:23:25.897Z,6.80
2023-05-09T11:25:34.214Z,6.88
2023-05-09T11:26:37.663Z,7.60
2023-05-09T11:27:43.982Z,6.22
2023-05-09T11:28:54.281Z,5.07
2023-05-09T11:29:59.735Z,6.47
2023-05-09T11:31:19.279Z,6.70
2023-05-09T11:32:27.554Z,6.70
2023-05-09T11:33:31.595Z,5.10
2023-05-09T11:34:35.020Z,6.35
2023-05-09T11:35:38.357Z,7.13
2023-05-09T11:36:48.312Z,6.38
2023-05-09T11:38:02.796Z,5.45
2023-05-09T11:39:06.648Z,6.70
2023-05-09T11:40:13.111Z,6.35
2023-05-09T11:41:16.514Z,6.57
2023-05-09T11:42:21.227Z,5.82
2023-05-09T11:43:24.255Z,6.70
2023-05-09T11:44:31.109Z,5.25
2023-05-09T11:45:34.332Z,5.15
2023-05-09T11:46:38.023Z,6.88
2023-05-09T11:47:41.417Z,4.93
2023-05-09T11:48:44.468Z,4.13
2023-05-09T11:49:50.022Z,6.57
2023-05-09T11:50:53.111Z,6.80
2023-05-09T11:52:00.102Z,6.28
2023-05-09T11:53:03.363Z,5.93
2023-05-09T11:54:07.568Z,5.55
2023-05-09T11:55:12.831Z,5.53
2023-05-09T11:56:39.298Z,6.35
2023-05-09T11:59:39.557Z,5.80
2023-05-09T12:00:46.530Z,5.95
2023-05-09T12:01:49.604Z,6.38
2023-05-09T12:02:53.645Z,6.38
2023-05-09T12:04:00.190Z,6.20
2023-05-09T12:05:17.718Z,4.40
2023-05-09T12:06:21.293Z,6.95
2023-05-09T12:07:25.137Z,5.30
2023-05-09T12:08:29.386Z,6.30
2023-05-09T12:09:34.157Z,5.93
2023-05-09T12:10:39.078Z,5.82
2023-05-09T12:11:51.817Z,4.53
2023-05-09T12:12:56.257Z,5.45
2023-05-09T12:13:59.657Z,6.13
2023-05-09T12:15:04.933Z,5.43
2023-05-09T12:16:10.829Z,5.07
2023-05-09T12:17:13.971Z,5.40
2023-05-09T12:18:18.466Z,6.80
2023-05-09T12:19:23.409Z,6.40
2023-05-09T12:20:26.643Z,5.43
2023-05-09T12:21:29.868Z,4.57
2023-05-09T12:22:33.601Z,5.80
2023-05-09T12:23:36.732Z,5.93
2023-05-09T12:24:39.803Z,5.32
2023-05-09T12:25:56.191Z,5.47
2023-05-09T12:27:00.491Z,4.85
2023-05-09T12:28:04.248Z,5.07
2023-05-09T12:29:07.487Z,4.50
2023-05-09T12:30:14.189Z,5.47
2023-05-09T12:31:17.932Z,4.80
2023-05-09T12:32:21.549Z,5.68
2023-05-09T12:33:25.254Z,4.88
2023-05-09T12:34:28.672Z,5.22
2023-05-09T12:35:32.425Z,5.28
2023-05-09T12:36:36.928Z,5.40
2023-05-09T12:37:40.001Z,5.13
2023-05-09T12:38:55.027Z,5.47
2023-05-09T12:40:04.466Z,5.60
2023-05-09T12:41:31.022Z,5.40
2023-05-09T12:42:38.888Z,3.95
2023-05-09T12:43:41.935Z,5.30
2023-05-09T12:44:49.874Z,5.75
2023-05-09T12:45:53.766Z,5.20
2023-05-09T12:47:02.401Z,5.30
2023-05-09T12:48:06.275Z,5.13
2023-05-09T12:49:21.242Z,5.10
2023-05-09T12:50:32.693Z,5.00
2023-05-09T12:51:35.722Z,5.22
2023-05-09T12:52:54.133Z,4.13
2023-05-09T12:54:05.337Z,6.25
2023-05-09T12:55:12.841Z,4.95
2023-05-09T12:56:18.941Z,5.28
2023-05-09T12:57:29.361Z,4.57
2023-05-09T12:58:34.103Z,4.20
2023-05-09T12:59:37.130Z,5.25
2023-05-09T13:00:46.553Z,4.82
2023-05-09T13:01:58.196Z,4.95
2023-05-09T13:03:01.388Z,4.93
2023-05-09T13:04:06.430Z,4.85
2023-05-09T13:05:13.788Z,4.82
2023-05-09T13:06:16.881Z,4.50
2023-05-09T13:07:19.985Z,4.40
2023-05-09T13:08:23.412Z,4.82
2023-05-09T13:09:29.864Z,4.63
2023-05-09T13:10:33.027Z,5.13
2023-05-09T13:11:37.959Z,3.55
2023-05-09T13:12:44.774Z,4.43
2023-05-09T13:13:56.850Z,5.43
2023-05-09T13:14:59.875Z,4.82
2023-05-09T13:16:04.527Z,4.85
2023-05-09T13:17:07.519Z,4.47
2023-05-09T13:18:12.175Z,4.68
2023-05-09T13:19:16.634Z,3.33
2023-05-09T13:20:19.956Z,4.72
2023-05-09T13:21:22.981Z,5.30
2023-05-09T13:22:26.419Z,5.38
2023-05-09T13:23:29.386Z,4.68
2023-05-09T13:24:32.950Z,4.82
2023-05-09T13:25:36.085Z,4.55
2023-05-09T13:26:39.192Z,4.05
2023-05-09T13:27:42.181Z,4.22
2023-05-09T13:28:45.390Z,4.13
2023-05-09T13:29:48.409Z,4.55
2023-05-09T13:30:51.781Z,4.78
2023-05-09T13:31:54.896Z,3.78
2023-05-09T13:33:00.380Z,4.68
2023-05-09T13:34:07.072Z,3.92
2023-05-09T13:35:10.440Z,4.28
2023-05-09T13:36:14.104Z,4.10
2023-05-09T13:37:17.278Z,4.03
2023-05-09T13:38:20.417Z,4.28
2023-05-09T13:39:24.611Z,2.83
2023-05-09T13:40:27.882Z,4.00
2023-05-09T13:41:32.377Z,4.13
2023-05-09T13:42:35.405Z,3.58
2023-05-09T13:43:41.535Z,3.38
2023-05-09T13:44:44.528Z,2.70
2023-05-09T13:45:47.679Z,3.95
2023-05-09T13:46:51.035Z,4.40
2023-05-09T13:47:54.812Z,3.72
2023-05-09T13:48:57.836Z,4.55
2023-05-09T13:50:01.137Z,5.22
2023-05-09T13:51:09.153Z,3.70
2023-05-09T13:52:12.666Z,4.10
2023-05-09T13:53:15.682Z,4.20
2023-05-09T13:54:20.025Z,3.38
2023-05-09T13:55:23.228Z,3.88
2023-05-09T13:56:26.454Z,4.40
2023-05-09T13:57:29.455Z,3.67
2023-05-09T13:58:32.751Z,3.97
2023-05-09T13:59:35.812Z,4.22
2023-05-09T14:00:38.942Z,4.20
2023-05-09T14:01:43.064Z,3.97
2023-05-09T14:02:46.487Z,3.80
2023-05-09T14:03:49.549Z,3.83
2023-05-09T14:04:52.697Z,4.43
2023-05-09T14:05:55.694Z,3.97
2023-05-09T14:07:00.154Z,3.72
2023-05-09T14:08:04.490Z,3.85
2023-05-09T14:09:07.525Z,4.03
2023-05-09T14:10:16.201Z,3.88
2023-05-09T14:11:19.463Z,4.80
2023-05-09T14:12:22.697Z,3.78
2023-05-09T14:13:25.879Z,4.20
2023-05-09T14:14:28.859Z,4.32
2023-05-09T14:15:31.880Z,3.88
2023-05-09T14:16:50.353Z,3.30
2023-05-09T14:17:57.194Z,4.25
2023-05-09T14:19:06.133Z,3.80
2023-05-09T14:20:21.189Z,2.80
2023-05-09T14:21:24.062Z,4.72
2023-05-09T14:22:27.182Z,4.45
2023-05-09T14:23:30.059Z,3.95
2023-05-09T14:24:36.125Z,4.43
2023-05-09T14:25:41.420Z,2.33
2023-05-09T14:26:45.267Z,3.72
2023-05-09T14:27:48.081Z,3.35
2023-05-09T14:28:51.026Z,4.15
2023-05-09T14:29:53.925Z,2.88
2023-05-09T14:30:59.682Z,4.00
2023-05-09T14:32:02.545Z,3.42
2023-05-09T14:33:05.960Z,3.42
2023-05-09T14:34:09.581Z,3.47
2023-05-09T14:35:12.762Z,2.83
2023-05-09T14:36:15.576Z,4.03
2023-05-09T14:37:18.504Z,2.15
2023-05-09T14:38:21.538Z,4.45